KGKY Airport (Arlington Muni) Information

FAA: GKY - ICAO: KGKY

KGKY Airport Location

State Texas
County Tarrant
City Arlington
KGKY Airport is 4 miles south of Arlington, TX.
Latitude 32-39-49.9000N
Longitude 097-05-39.4000W
Elevation 628ft

KGKY Airport METARs

METAR KGKY 071953Z 16009KT 10SM OVC030 24/18 A3012 RMK AO2 SLP192 T02440183
Altimeter 30.12"
Temperature 24.4°C (75.9°F)
Wind 160° at 9KT
Clouds overcast at 3,000ft
Visibility 10.0mi
Time observed: 2022-12-07T19:53:00Z

KGKY Airport Details

Status Operational
Activation May 1971
Ownership Public
Usage Public
Chart DALLAS-FT WORTH
ATC on-site Yes
Beacon schedule sunset-sunrise
Beacon color clear green

KGKY Airport Contacts

Owner CITY OF ARLINGTON
Owner address PO BOX 90231, ARLINGTON, TX 76004-3231
Owner phone 817-459-6100
Manager PAUL L KELLY
Manager address PO BOX 51916, AMARILLO, TX 79159-1916
Manager phone 806-467-1119

KGKY Airport (Arlington Muni) Radio Frequencies

KGKY (Airport) Radio Frequencies

UNICOM N/A
Common traffic advisory frequency (CTAF) 128.625